Time;durP1;ratioP1;P1;durP2;ratioP2;P2;SDS_P1;SDS_P2;PMS_P1;PMS_P2;Temp;Humidity;BMP_temperature;BMP_pressure;BME280_temperature;BME280_humidity;BME280_pressure;Samples;Min_cycle;Max_cycle;Signal;HPM_P1;HPM_P2
2021/03/09 00:01:00;;;;;;;62.50;25.77;;;;;;;3.29;100.00;101492.28;4965850;28;20408;-54
2021/03/09 00:03:27;;;;;;;52.15;24.60;;;;;;;3.30;100.00;101491.31;4967489;28;20330;-55
2021/03/09 00:05:55;;;;;;;63.92;27.23;;;;;;;3.21;100.00;101490.13;4963337;28;20118;-55
2021/03/09 00:08:21;;;;;;;55.58;26.67;;;;;;;3.27;100.00;101494.16;4965018;28;20146;-54
2021/03/09 00:10:48;;;;;;;51.33;25.60;;;;;;;3.23;100.00;101492.66;4971699;28;20034;-56
2021/03/09 00:13:15;;;;;;;47.75;23.67;;;;;;;3.29;100.00;101492.28;4967788;28;20064;-55
2021/03/09 00:15:42;;;;;;;52.10;25.52;;;;;;;3.14;100.00;101488.00;4964324;28;20046;-55
2021/03/09 00:18:14;;;;;;;55.90;26.13;;;;;;;3.13;100.00;101483.66;4967139;28;20296;-54
2021/03/09 00:20:41;;;;;;;56.38;26.45;;;;;;;3.20;100.00;101490.22;4969859;28;20047;-56
2021/03/09 00:23:07;;;;;;;55.63;23.25;;;;;;;3.24;100.00;101489.09;4963217;28;20043;-54
2021/03/09 00:25:34;;;;;;;55.35;25.20;;;;;;;3.24;100.00;101483.81;4964529;28;20435;-54
2021/03/09 00:28:01;;;;;;;48.50;23.33;;;;;;;3.18;100.00;101485.06;4969445;28;20043;-56
2021/03/09 00:30:28;;;;;;;51.63;24.85;;;;;;;3.20;100.00;101482.31;4965552;28;20055;-54
2021/03/09 00:32:55;;;;;;;49.25;22.05;;;;;;;3.18;100.00;101489.50;4966716;28;20126;-55
2021/03/09 00:35:24;;;;;;;46.45;22.13;;;;;;;3.18;100.00;101481.59;4963737;28;20038;-55
2021/03/09 00:37:51;;;;;;;48.22;21.55;;;;;;;3.20;100.00;101484.97;4967771;28;20463;-55
2021/03/09 00:40:18;;;;;;;44.78;21.98;;;;;;;3.14;100.00;101482.72;4961462;28;20059;-53
2021/03/09 00:42:45;;;;;;;51.95;21.85;;;;;;;3.13;100.00;101487.13;4966817;28;20035;-55
2021/03/09 00:45:12;;;;;;;46.22;22.80;;;;;;;3.10;100.00;101480.28;4959199;28;20109;-55
2021/03/09 00:47:54;;;;;;;48.15;22.02;;;;;;;3.06;100.00;101473.50;4968422;28;20045;-54
2021/03/09 00:50:21;;;;;;;50.78;22.48;;;;;;;3.02;100.00;101477.28;4963672;28;20050;-55
2021/03/09 00:52:49;;;;;;;45.72;23.38;;;;;;;3.02;100.00;101476.41;4965661;28;20043;-51
2021/03/09 00:55:16;;;;;;;47.45;21.20;;;;;;;3.15;100.00;101479.13;4963688;28;20039;-56
2021/03/09 00:57:43;;;;;;;49.90;23.35;;;;;;;3.12;100.00;101482.81;4966608;28;20054;-56
2021/03/09 01:00:11;;;;;;;49.45;21.73;;;;;;;3.17;100.00;101477.25;4964684;28;20043;-55
2021/03/09 01:02:38;;;;;;;47.75;21.40;;;;;;;3.14;100.00;101470.34;4965351;28;20402;-55
2021/03/09 01:05:06;;;;;;;48.00;20.67;;;;;;;3.00;100.00;101481.78;4962923;28;20327;-55
2021/03/09 01:07:32;;;;;;;45.53;21.13;;;;;;;2.98;100.00;101472.28;4970237;28;20046;-55
2021/03/09 01:10:00;;;;;;;51.03;23.10;;;;;;;2.93;100.00;101470.81;4967053;28;20042;-55
2021/03/09 01:12:27;;;;;;;41.05;22.08;;;;;;;2.92;100.00;101474.38;4966371;28;20121;-55
2021/03/09 01:14:55;;;;;;;50.47;22.48;;;;;;;2.98;100.00;101462.59;4969004;28;20047;-55
2021/03/09 01:17:22;;;;;;;54.30;22.73;;;;;;;2.91;100.00;101471.84;4968159;28;20065;-55
2021/03/09 01:19:49;;;;;;;47.20;22.42;;;;;;;2.93;100.00;101462.03;4966096;28;20105;-54
2021/03/09 01:22:16;;;;;;;50.53;23.33;;;;;;;3.03;100.00;101460.47;4946780;28;20054;-54
2021/03/09 01:24:42;;;;;;;48.08;23.70;;;;;;;3.04;100.00;101445.50;4965881;28;20046;-56
2021/03/09 01:27:11;;;;;;;49.50;22.65;;;;;;;2.99;100.00;101452.88;4963503;28;20458;-54
2021/03/09 01:29:38;;;;;;;47.35;23.58;;;;;;;2.98;100.00;101451.16;4964525;28;20522;-55
2021/03/09 01:32:07;;;;;;;51.67;25.75;;;;;;;3.20;100.00;101453.28;4968939;28;20098;-55
2021/03/09 01:34:34;;;;;;;49.75;22.30;;;;;;;3.24;100.00;101452.13;4965263;28;20073;-55
2021/03/09 01:37:01;;;;;;;46.45;24.05;;;;;;;3.25;100.00;101453.84;4965978;28;20050;-53
2021/03/09 01:39:28;;;;;;;57.28;25.48;;;;;;;3.06;100.00;101447.13;4966697;28;20038;-55
2021/03/09 01:41:55;;;;;;;54.97;23.50;;;;;;;3.01;100.00;101445.72;4966965;28;20304;-55
2021/03/09 01:44:24;;;;;;;59.05;24.67;;;;;;;2.95;100.00;101446.97;4961508;28;20670;-55
2021/03/09 01:46:51;;;;;;;53.58;25.88;;;;;;;2.92;100.00;101442.72;4964162;28;20050;-55
2021/03/09 01:49:18;;;;;;;55.58;24.00;;;;;;;3.00;100.00;101441.38;4966131;28;20061;-54
2021/03/09 01:51:46;;;;;;;51.63;25.58;;;;;;;3.05;100.00;101434.84;4963842;28;20120;-56
2021/03/09 01:54:14;;;;;;;67.78;27.48;;;;;;;2.91;100.00;101434.91;4962400;28;20042;-55
2021/03/09 01:56:42;;;;;;;56.28;25.27;;;;;;;2.87;100.00;101428.13;4961049;28;20069;-55
2021/03/09 01:59:09;;;;;;;58.00;26.02;;;;;;;2.99;100.00;101432.63;4966465;28;20039;-55
2021/03/09 02:01:37;;;;;;;56.42;23.88;;;;;;;2.96;100.00;101422.25;4946964;28;20450;-56
2021/03/09 02:04:05;;;;;;;50.78;25.08;;;;;;;2.98;100.00;101420.38;4960373;28;20129;-56
2021/03/09 02:06:33;;;;;;;51.78;24.98;;;;;;;2.94;100.00;101418.88;4967308;28;20054;-55
2021/03/09 02:09:00;;;;;;;56.13;25.70;;;;;;;2.93;100.00;101417.16;4966428;28;20354;-56
2021/03/09 02:11:34;;;;;;;54.85;24.67;;;;;;;2.90;100.00;101407.66;4964577;28;20039;-52
2021/03/09 02:14:07;;;;;;;50.55;22.58;;;;;;;2.97;100.00;101409.91;4965910;28;20046;-56
2021/03/09 02:16:42;;;;;;;51.53;23.50;;;;;;;2.87;100.00;101407.84;4963494;28;20427;-55
2021/03/09 02:19:36;;;;;;;;;;;;;;;2.93;100.00;101402.19;4967160;28;20051;-52
2021/03/09 02:22:24;;;;;;;43.90;18.83;;;;;;;2.90;100.00;101393.63;4963334;28;19937;-52
2021/03/09 02:25:06;;;;;;;46.78;19.90;;;;;;;2.83;100.00;101387.88;4936865;28;20050;-52
2021/03/09 02:27:40;;;;;;;40.13;17.73;;;;;;;2.88;100.00;101385.81;4966675;28;20376;-57
2021/03/09 02:30:14;;;;;;;45.28;18.05;;;;;;;2.85;100.00;101372.81;4965950;28;20047;-54
2021/03/09 02:32:44;;;;;;;35.55;16.02;;;;;;;2.91;100.00;101374.22;4966867;28;20039;-56
2021/03/09 02:35:16;;;;;;;45.30;18.75;;;;;;;2.81;100.00;101366.06;4962559;28;20069;-54
2021/03/09 02:37:44;;;;;;;39.35;17.17;;;;;;;2.91;100.00;101367.13;4966471;28;20069;-54
2021/03/09 02:40:13;;;;;;;40.47;17.33;;;;;;;2.87;100.00;101364.81;4966530;28;20046;-56
2021/03/09 02:42:47;;;;;;;40.13;18.42;;;;;;;2.90;100.00;101365.44;4968619;28;20042;-56
2021/03/09 02:45:17;;;;;;;37.50;16.30;;;;;;;2.86;100.00;101365.75;4947517;28;20695;-52
2021/03/09 02:47:46;;;;;;;38.08;16.38;;;;;;;2.99;100.00;101355.22;4966333;28;20046;-54
2021/03/09 02:50:15;;;;;;;33.00;16.45;;;;;;;3.00;100.00;101351.66;4959187;28;20043;-54
2021/03/09 02:52:43;;;;;;;44.17;17.80;;;;;;;2.88;100.00;101355.97;4963388;28;20038;-54
2021/03/09 02:55:12;;;;;;;36.97;16.15;;;;;;;2.91;100.00;101347.84;4961049;28;20047;-55
2021/03/09 02:57:40;;;;;;;30.83;15.27;;;;;;;2.95;100.00;101346.69;4965060;28;20061;-56
2021/03/09 03:00:08;;;;;;;35.10;14.15;;;;;;;2.95;100.00;101351.09;4966104;28;20035;-56
2021/03/09 03:02:37;;;;;;;35.15;15.95;;;;;;;2.95;100.00;101351.09;4961191;28;20505;-52
2021/03/09 03:05:06;;;;;;;27.27;14.38;;;;;;;3.10;100.00;101340.41;4959480;28;20050;-53
2021/03/09 03:07:33;;;;;;;36.33;14.65;;;;;;;3.03;100.00;101338.25;4965032;28;20046;-56
2021/03/09 03:10:01;;;;;;;37.70;15.43;;;;;;;3.09;100.00;101343.13;4967424;28;20388;-56
2021/03/09 03:12:30;;;;;;;32.85;14.77;;;;;;;3.06;100.00;101338.91;4969319;28;20066;-53
2021/03/09 03:14:58;;;;;;;35.45;15.27;;;;;;;2.95;100.00;101330.84;4967337;28;20043;-57
2021/03/09 03:17:25;;;;;;;33.83;14.80;;;;;;;2.89;100.00;101332.09;4968016;28;20057;-55
2021/03/09 03:19:54;;;;;;;40.05;16.05;;;;;;;2.96;100.00;101329.88;4971705;28;20050;-54
2021/03/09 03:22:20;;;;;;;36.17;16.40;;;;;;;3.00;100.00;101327.91;4969696;28;20035;-57
2021/03/09 03:24:48;;;;;;;32.22;14.77;;;;;;;2.95;100.00;101322.94;4968330;28;20330;-56
2021/03/09 03:27:17;;;;;;;34.45;16.23;;;;;;;2.93;100.00;101322.19;4968650;28;20043;-55
2021/03/09 03:29:44;;;;;;;36.67;16.23;;;;;;;2.90;100.00;101319.75;4968091;28;20546;-56
2021/03/09 03:32:13;;;;;;;34.42;15.43;;;;;;;3.00;100.00;101323.47;4967283;28;20043;-55
2021/03/09 03:34:40;;;;;;;31.67;14.75;;;;;;;2.96;100.00;101314.06;4969445;28;20040;-57
2021/03/09 03:37:08;;;;;;;34.22;15.63;;;;;;;3.02;100.00;101316.31;4967059;28;20051;-56
2021/03/09 03:39:36;;;;;;;33.83;16.75;;;;;;;2.96;100.00;101311.41;4967025;28;20034;-57
2021/03/09 03:42:04;;;;;;;38.53;15.77;;;;;;;3.02;100.00;101310.16;4970403;28;20150;-53
2021/03/09 03:44:30;;;;;;;36.70;17.02;;;;;;;2.96;100.00;101308.78;4963734;28;20450;-53
2021/03/09 03:46:58;;;;;;;34.30;14.50;;;;;;;2.98;100.00;101306.03;4971347;28;20508;-51
2021/03/09 03:49:26;;;;;;;38.17;15.48;;;;;;;3.08;100.00;101304.50;4969334;28;20339;-53
2021/03/09 03:52:03;;;;;;;35.33;15.13;;;;;;;3.16;100.00;101303.97;4964630;28;20134;-55
2021/03/09 03:54:39;;;;;;;36.20;16.23;;;;;;;3.16;100.00;101301.34;4966704;28;20061;-55
2021/03/09 03:57:09;;;;;;;38.53;18.45;;;;;;;3.03;100.00;101302.16;4967425;28;20287;-56
2021/03/09 03:59:39;;;;;;;36.70;18.35;;;;;;;3.13;100.00;101302.38;4968173;28;20050;-57
2021/03/09 04:02:08;;;;;;;37.70;17.00;;;;;;;3.21;100.00;101297.44;4972915;28;20057;-55
2021/03/09 04:04:37;;;;;;;33.83;15.63;;;;;;;3.08;100.00;101294.78;4966286;28;20031;-56
2021/03/09 04:07:04;;;;;;;37.72;17.60;;;;;;;3.07;100.00;101290.44;4971241;28;20051;-55
2021/03/09 04:09:33;;;;;;;36.47;18.70;;;;;;;3.00;100.00;101290.97;4969618;28;20061;-55
2021/03/09 04:12:01;;;;;;;40.67;16.95;;;;;;;3.04;100.00;101290.66;4969325;28;20051;-57
2021/03/09 04:14:30;;;;;;;47.70;19.15;;;;;;;3.13;100.00;101293.63;4964980;28;21530;-55
2021/03/09 04:16:57;;;;;;;39.53;16.73;;;;;;;3.04;100.00;101288.00;4967488;28;20050;-57
2021/03/09 04:19:25;;;;;;;39.45;16.58;;;;;;;3.02;100.00;101289.06;4966186;28;20047;-54
2021/03/09 04:21:53;;;;;;;38.30;16.73;;;;;;;3.12;100.00;101291.94;4968070;28;20051;-56
2021/03/09 04:24:20;;;;;;;36.17;17.50;;;;;;;3.13;100.00;101281.25;4966326;28;20042;-57
2021/03/09 04:26:49;;;;;;;38.70;17.25;;;;;;;3.18;100.00;101287.09;4968464;28;20046;-56
2021/03/09 04:29:16;;;;;;;35.50;15.68;;;;;;;3.26;100.00;101276.00;4966336;28;20351;-56
2021/03/09 04:31:44;;;;;;;37.38;16.42;;;;;;;3.19;100.00;101274.72;4969530;28;20158;-54
2021/03/09 04:34:13;;;;;;;39.75;17.70;;;;;;;3.04;100.00;101274.81;4965140;28;20043;-55
2021/03/09 04:36:40;;;;;;;46.63;19.75;;;;;;;2.88;100.00;101275.00;4965456;28;20049;-52
2021/03/09 04:39:08;;;;;;;36.65;17.42;;;;;;;2.93;100.00;101275.56;4968187;28;20046;-55
2021/03/09 04:41:36;;;;;;;43.75;18.80;;;;;;;2.75;100.00;101271.47;4968116;28;20039;-53
2021/03/09 04:44:05;;;;;;;38.10;16.73;;;;;;;2.72;100.00;101280.47;4967144;28;20035;-56
2021/03/09 04:46:32;;;;;;;44.60;18.92;;;;;;;2.58;100.00;101269.97;4964378;28;20043;-56
2021/03/09 04:48:59;;;;;;;34.30;17.27;;;;;;;2.55;100.00;101262.22;4969902;28;20069;-55
2021/03/09 04:51:27;;;;;;;38.97;18.00;;;;;;;2.73;100.00;101268.94;4966405;28;20094;-55
2021/03/09 04:53:54;;;;;;;43.67;17.08;;;;;;;2.63;100.00;101267.84;4971298;28;20050;-57
2021/03/09 04:56:21;;;;;;;46.70;19.25;;;;;;;2.63;100.00;101269.66;4965708;28;20062;-54
2021/03/09 04:58:48;;;;;;;50.28;21.05;;;;;;;2.56;100.00;101256.84;4968342;28;20065;-56
2021/03/09 05:01:16;;;;;;;39.33;17.45;;;;;;;2.47;100.00;101254.84;4964402;28;20043;-56
2021/03/09 05:03:43;;;;;;;40.08;17.77;;;;;;;2.36;100.00;101249.41;4967764;28;20121;-57
2021/03/09 05:06:10;;;;;;;38.97;19.60;;;;;;;2.25;100.00;101258.00;4965528;28;20134;-55
2021/03/09 05:08:37;;;;;;;47.65;19.63;;;;;;;2.17;100.00;101260.28;4967170;28;20459;-54
2021/03/09 05:11:04;;;;;;;44.67;19.65;;;;;;;2.19;100.00;101253.97;4968666;28;20474;-57
2021/03/09 05:13:31;;;;;;;43.25;19.02;;;;;;;2.31;100.00;101252.34;4968422;28;20101;-56
2021/03/09 05:15:58;;;;;;;40.40;19.05;;;;;;;2.39;100.00;101251.84;4965587;28;20370;-56
2021/03/09 05:18:26;;;;;;;53.47;20.75;;;;;;;2.30;100.00;101255.94;4967165;28;20047;-55
2021/03/09 05:20:53;;;;;;;44.42;19.33;;;;;;;2.19;100.00;101255.78;4966952;28;20069;-56
2021/03/09 05:23:20;;;;;;;40.88;19.95;;;;;;;2.30;100.00;101255.09;4968941;28;20038;-56
2021/03/09 05:25:47;;;;;;;45.60;20.05;;;;;;;2.35;100.00;101247.72;4966331;28;20046;-56
2021/03/09 05:28:14;;;;;;;48.53;19.75;;;;;;;2.37;100.00;101240.56;4964695;28;20128;-57
2021/03/09 05:30:40;;;;;;;41.90;19.48;;;;;;;2.28;100.00;101255.16;4965808;28;20043;-56
2021/03/09 05:33:07;;;;;;;41.15;19.95;;;;;;;2.26;100.00;101254.44;4965380;28;20047;-55
2021/03/09 05:35:35;;;;;;;48.83;22.52;;;;;;;2.35;100.00;101243.31;4961599;28;20050;-54
2021/03/09 05:38:02;;;;;;;49.05;20.48;;;;;;;2.35;100.00;101248.59;4968084;28;20054;-54
2021/03/09 05:40:29;;;;;;;47.85;21.05;;;;;;;2.45;100.00;101248.81;4966380;28;20533;-55
2021/03/09 05:42:56;;;;;;;47.05;20.83;;;;;;;2.54;100.00;101250.84;4966878;28;20042;-55
2021/03/09 05:45:24;;;;;;;45.63;19.98;;;;;;;2.59;100.00;101253.19;4965037;28;20155;-52
2021/03/09 05:47:52;;;;;;;51.25;21.00;;;;;;;2.60;100.00;101259.31;4970003;28;20041;-55
2021/03/09 05:50:20;;;;;;;50.55;21.88;;;;;;;2.73;100.00;101254.91;4964584;28;20350;-51
2021/03/09 05:52:47;;;;;;;50.03;20.55;;;;;;;2.74;100.00;101257.44;4967028;28;20443;-53
2021/03/09 05:55:15;;;;;;;44.92;19.17;;;;;;;2.89;100.00;101257.38;4962441;28;20458;-53
2021/03/09 05:57:42;;;;;;;48.85;21.08;;;;;;;2.82;100.00;101253.47;4966596;28;20410;-56
2021/03/09 06:00:11;;;;;;;45.72;21.05;;;;;;;2.94;100.00;101260.56;4963997;28;20042;-54
2021/03/09 06:02:38;;;;;;;44.85;22.38;;;;;;;2.91;100.00;101258.13;4963846;28;20051;-55
2021/03/09 06:05:07;;;;;;;53.97;23.40;;;;;;;2.87;100.00;101259.28;4964524;28;20458;-55
2021/03/09 06:07:35;;;;;;;50.05;22.73;;;;;;;2.78;100.00;101254.59;4965900;28;20038;-53
2021/03/09 06:10:03;;;;;;;45.13;20.90;;;;;;;2.75;100.00;101264.44;4963199;28;20122;-54
2021/03/09 06:12:30;;;;;;;46.13;20.80;;;;;;;2.82;100.00;101256.09;4966847;28;20324;-54
2021/03/09 06:15:02;;;;;;;52.45;22.58;;;;;;;2.85;100.00;101254.09;4966104;28;20042;-51
2021/03/09 06:17:31;;;;;;;46.63;21.63;;;;;;;2.87;100.00;101251.38;4963388;28;20664;-55
2021/03/09 06:20:24;;;;;;;49.20;22.17;;;;;;;2.75;100.00;101247.72;4962504;28;20062;-54
2021/03/09 06:22:52;;;;;;;50.10;20.33;;;;;;;2.88;100.00;101250.44;4966147;28;20042;-55
2021/03/09 06:25:22;;;;;;;47.83;22.00;;;;;;;2.85;100.00;101247.97;4963835;28;20034;-55
2021/03/09 06:27:50;;;;;;;49.45;21.98;;;;;;;2.78;100.00;101254.59;4967782;28;20454;-54
2021/03/09 06:30:31;;;;;;;48.03;21.67;;;;;;;2.96;100.00;101256.00;4964311;28;20442;-55
2021/03/09 06:32:58;;;;;;;46.03;19.73;;;;;;;2.98;100.00;101240.06;4965167;28;20069;-56
2021/03/09 06:35:31;;;;;;;49.03;21.83;;;;;;;3.17;100.00;101239.69;4961299;28;20038;-55
2021/03/09 06:38:18;;;;;;;46.20;22.73;;;;;;;3.04;100.00;101244.97;4963429;28;20054;-56
2021/03/09 06:41:05;;;;;;;46.80;23.15;;;;;;;3.17;100.00;101250.25;4964547;28;20338;-56
2021/03/09 06:43:33;;;;;;;47.33;20.50;;;;;;;3.27;100.00;101253.94;4969069;28;20429;-53
2021/03/09 06:46:18;;;;;;;51.30;21.85;;;;;;;3.17;100.00;101253.72;4968341;28;20038;-55
2021/03/09 06:48:47;;;;;;;56.22;22.73;;;;;;;3.20;100.00;101265.88;4969232;28;20045;-54
2021/03/09 06:51:36;;;;;;;50.25;22.30;;;;;;;3.22;100.00;101264.00;4970008;28;20362;-55
2021/03/09 06:54:05;;;;;;;51.55;22.48;;;;;;;3.38;100.00;101264.59;4966218;28;20065;-53
2021/03/09 06:56:36;;;;;;;53.97;22.95;;;;;;;3.58;100.00;101265.03;4965310;28;20043;-55
2021/03/09 06:59:28;;;;;;;57.45;23.08;;;;;;;3.71;100.00;101268.50;4969950;28;20378;-53
2021/03/09 07:02:07;;;;;;;51.97;23.75;;;;;;;3.73;100.00;101273.69;4960050;28;20054;-53
2021/03/09 07:04:36;;;;;;;53.03;23.75;;;;;;;3.75;100.00;101266.50;4963820;28;20047;-53
2021/03/09 07:07:03;;;;;;;50.03;22.63;;;;;;;4.04;100.00;101260.94;4966148;28;20047;-52
2021/03/09 07:09:30;;;;;;;52.75;25.75;;;;;;;3.83;100.00;101273.88;4969058;28;20067;-53
2021/03/09 07:11:58;;;;;;;51.50;24.48;;;;;;;3.94;100.00;101272.19;4969164;28;20453;-55
2021/03/09 07:14:30;;;;;;;55.47;25.17;;;;;;;3.85;100.00;101266.69;4967627;28;20035;-54
2021/03/09 07:16:57;;;;;;;55.90;24.38;;;;;;;3.93;100.00;101270.47;4972815;28;20415;-54
2021/03/09 07:19:25;;;;;;;59.60;24.00;;;;;;;4.00;100.00;101264.75;4964189;28;20474;-55
2021/03/09 07:21:53;;;;;;;57.38;25.08;;;;;;;4.04;100.00;101266.22;4964128;28;20040;-57
2021/03/09 07:24:21;;;;;;;50.80;23.75;;;;;;;4.00;100.00;101268.25;4967473;28;20050;-54
2021/03/09 07:26:52;;;;;;;54.38;27.55;;;;;;;3.99;100.00;101273.66;4969060;28;20051;-52
2021/03/09 07:29:22;;;;;;;55.20;25.73;;;;;;;4.20;100.00;101277.41;4967562;28;20501;-56
2021/03/09 07:31:50;;;;;;;54.15;26.60;;;;;;;4.19;100.00;101280.16;4970034;28;20035;-56
2021/03/09 07:34:18;;;;;;;54.38;25.10;;;;;;;4.27;100.00;101277.81;4971248;28;20279;-54
2021/03/09 07:36:45;;;;;;;50.95;24.65;;;;;;;4.30;100.00;101285.50;4968254;28;20039;-56
2021/03/09 07:39:12;;;;;;;54.58;24.92;;;;;;;4.29;100.00;101282.00;4967690;28;20043;-56
2021/03/09 07:41:39;;;;;;;57.88;27.45;;;;;;;4.38;100.00;101284.94;4968329;28;20503;-55
2021/03/09 07:44:08;;;;;;;51.03;24.95;;;;;;;4.59;100.00;101280.75;4964975;28;20035;-55
2021/03/09 07:46:36;;;;;;;55.20;27.30;;;;;;;4.78;100.00;101288.16;4963815;28;20320;-57
2021/03/09 07:49:02;;;;;;;50.80;25.25;;;;;;;4.75;100.00;101285.75;4968099;28;20081;-55
2021/03/09 07:51:28;;;;;;;53.30;25.63;;;;;;;4.85;100.00;101285.91;4965938;28;20043;-51
2021/03/09 07:54:11;;;;;;;51.97;25.30;;;;;;;5.01;100.00;101285.59;4967567;28;20193;-53
2021/03/09 07:56:38;;;;;;;45.65;23.50;;;;;;;5.20;100.00;101286.84;4966738;28;20440;-56
2021/03/09 07:59:07;;;;;;;57.50;26.52;;;;;;;5.27;100.00;101288.06;4970570;28;20418;-54
2021/03/09 08:01:48;;;;;;;56.00;26.52;;;;;;;5.34;100.00;101281.34;4968884;28;20049;-55
2021/03/09 08:04:14;;;;;;;53.97;24.60;;;;;;;5.37;100.00;101282.91;4967793;28;20109;-56
2021/03/09 08:06:42;;;;;;;54.47;25.60;;;;;;;5.50;100.00;101294.25;4963026;28;20046;-54
2021/03/09 08:09:35;;;;;;;62.63;25.77;;;;;;;5.34;100.00;101294.59;4970578;28;20181;-55
2021/03/09 08:12:02;;;;;;;58.92;28.77;;;;;;;5.24;100.00;101306.84;4968844;28;20039;-55
2021/03/09 08:14:28;;;;;;;54.22;24.45;;;;;;;5.42;100.00;101292.19;4966045;28;20252;-55
2021/03/09 08:16:56;;;;;;;58.60;26.17;;;;;;;5.45;100.00;101296.41;4970265;28;20054;-54
2021/03/09 08:19:40;;;;;;;56.35;26.27;;;;;;;5.38;100.00;101295.22;4963969;28;20057;-54
2021/03/09 08:22:08;;;;;;;46.55;24.45;;;;;;;5.41;100.00;101301.09;4965479;28;20051;-56
2021/03/09 08:24:52;;;;;;;57.53;27.73;;;;;;;5.23;100.00;101307.81;4965228;28;20438;-52
2021/03/09 08:27:36;;;;;;;44.97;23.52;;;;;;;5.26;100.00;101296.97;4968858;28;20287;-56
2021/03/09 08:30:35;;;;;;;52.78;24.83;;;;;;;5.13;100.00;101307.66;4965315;28;20432;-54
2021/03/09 08:33:32;;;;;;;48.78;24.73;;;;;;;5.18;100.00;101297.56;4966435;28;20332;-55
2021/03/09 08:36:00;;;;;;;45.67;22.60;;;;;;;5.25;100.00;101296.13;4966072;28;20042;-53
2021/03/09 08:38:27;;;;;;;52.55;25.08;;;;;;;5.42;100.00;101294.84;4969175;28;20359;-56
2021/03/09 08:40:58;;;;;;;56.65;27.25;;;;;;;5.40;100.00;101296.78;4968731;28;20657;-55
2021/03/09 08:43:25;;;;;;;49.72;24.52;;;;;;;5.57;100.00;101294.63;4966731;28;20050;-55
2021/03/09 08:45:57;;;;;;;47.00;24.60;;;;;;;5.93;100.00;101292.72;4967654;28;20058;-51
2021/03/09 08:48:50;;;;;;;47.28;23.10;;;;;;;5.95;100.00;101288.13;4967305;28;20034;-55
2021/03/09 08:51:48;;;;;;;46.55;23.15;;;;;;;5.76;100.00;101292.22;4960688;28;20086;-56
2021/03/09 08:54:31;;;;;;;44.30;20.98;;;;;;;5.74;100.00;101299.47;4966139;28;20473;-56
2021/03/09 08:57:00;;;;;;;39.65;21.42;;;;;;;5.71;100.00;101289.09;4963234;28;20047;-55
2021/03/09 08:59:29;;;;;;;43.30;21.73;;;;;;;5.66;100.00;101294.75;4963775;28;20046;-56
2021/03/09 09:02:15;;;;;;;40.25;20.67;;;;;;;5.62;100.00;101287.16;4965914;28;20457;-56
2021/03/09 09:04:45;;;;;;;39.47;19.15;;;;;;;5.94;100.00;101289.09;4964135;28;20484;-54
2021/03/09 09:07:24;;;;;;;39.00;20.15;;;;;;;5.95;100.00;101285.47;4964905;28;20403;-56
2021/03/09 09:09:52;;;;;;;39.70;20.75;;;;;;;5.94;100.00;101287.31;4964118;28;20055;-55
2021/03/09 09:12:27;;;;;;;45.47;22.65;;;;;;;5.83;100.00;101295.25;4965671;28;20038;-56
2021/03/09 09:15:23;;;;;;;39.78;19.02;;;;;;;6.06;100.00;101290.81;4965340;28;20038;-52
2021/03/09 09:17:53;;;;;;;43.05;20.30;;;;;;;5.76;100.00;101294.06;4965251;28;20039;-56
2021/03/09 09:20:29;;;;;;;43.88;21.15;;;;;;;5.91;100.00;101281.38;4964659;28;20141;-56
2021/03/09 09:22:57;;;;;;;37.00;20.92;;;;;;;5.82;100.00;101290.91;4966665;28;20043;-55
2021/03/09 09:25:24;;;;;;;36.20;17.90;;;;;;;6.33;100.00;101292.22;4946523;28;20062;-56
2021/03/09 09:27:52;;;;;;;39.58;19.40;;;;;;;6.40;100.00;101290.75;4969110;28;20058;-56
2021/03/09 09:30:22;;;;;;;37.15;19.58;;;;;;;6.86;100.00;101280.81;4966487;28;20333;-55
2021/03/09 09:32:51;;;;;;;40.42;19.80;;;;;;;6.92;100.00;101285.63;4966746;28;20058;-57
2021/03/09 09:35:20;;;;;;;38.22;18.60;;;;;;;6.17;100.00;101282.00;4963083;28;20074;-55
2021/03/09 09:37:54;;;;;;;36.45;19.23;;;;;;;6.42;100.00;101290.63;4965808;28;20039;-54
2021/03/09 09:40:23;;;;;;;39.13;20.88;;;;;;;6.25;100.00;101286.69;4962642;28;20045;-56
2021/03/09 09:42:55;;;;;;;37.65;19.10;;;;;;;6.09;100.00;101287.06;4962644;28;20039;-56
2021/03/09 09:45:22;;;;;;;41.58;21.42;;;;;;;6.35;100.00;101277.00;4964557;28;20413;-55
2021/03/09 09:47:50;;;;;;;46.13;21.30;;;;;;;5.95;100.00;101285.47;4963773;28;20043;-56
2021/03/09 09:50:18;;;;;;;42.22;21.60;;;;;;;6.49;100.00;101282.06;4962780;28;20158;-55
2021/03/09 09:53:09;;;;;;;39.63;19.73;;;;;;;6.84;100.00;101278.28;4963001;28;20092;-55
2021/03/09 09:55:36;;;;;;;37.83;19.05;;;;;;;7.07;100.00;101275.53;4960028;28;20549;-57
2021/03/09 09:58:04;;;;;;;42.05;19.38;;;;;;;8.03;100.00;101280.66;4963419;28;20291;-57
2021/03/09 10:00:32;;;;;;;36.13;18.90;;;;;;;8.59;100.00;101280.09;4967155;28;20038;-55
2021/03/09 10:03:06;;;;;;;37.58;19.70;;;;;;;7.38;100.00;101276.41;4966255;28;20454;-57
2021/03/09 10:05:33;;;;;;;35.35;20.02;;;;;;;6.80;100.00;101282.16;4961345;28;20567;-55
2021/03/09 10:08:00;;;;;;;36.53;21.25;;;;;;;6.69;100.00;101268.94;4963317;28;20153;-53
2021/03/09 10:10:28;;;;;;;43.85;23.67;;;;;;;6.36;100.00;101282.22;4964756;28;20434;-55
2021/03/09 10:12:55;;;;;;;41.78;24.20;;;;;;;6.24;100.00;101290.28;4966173;28;20047;-56
2021/03/09 10:15:22;;;;;;;43.47;23.55;;;;;;;6.14;100.00;101293.69;4962793;28;20483;-54
2021/03/09 10:17:49;;;;;;;43.45;23.52;;;;;;;5.90;100.00;101301.75;4963463;28;20042;-58
2021/03/09 10:20:19;;;;;;;48.22;26.52;;;;;;;5.73;100.00;101302.22;4964707;28;20046;-56
2021/03/09 10:22:46;;;;;;;46.08;24.58;;;;;;;5.70;100.00;101287.44;4965623;28;20347;-56
2021/03/09 10:25:14;;;;;;;36.88;19.67;;;;;;;6.12;100.00;101285.00;4965821;28;20039;-57
2021/03/09 10:27:42;;;;;;;44.45;23.90;;;;;;;6.38;100.00;101282.09;4963019;28;20325;-54
2021/03/09 10:30:10;;;;;;;43.65;23.20;;;;;;;6.17;100.00;101285.50;4967617;28;20363;-54
2021/03/09 10:32:50;;;;;;;42.72;23.10;;;;;;;6.07;100.00;101289.84;4963072;28;20043;-57
2021/03/09 10:35:18;;;;;;;48.33;24.40;;;;;;;6.14;100.00;101293.69;4959824;28;20335;-57
2021/03/09 10:37:45;;;;;;;45.05;21.88;;;;;;;6.31;100.00;101286.22;4963392;28;20043;-56
2021/03/09 10:40:13;;;;;;;35.78;21.17;;;;;;;6.55;100.00;101289.50;4961648;28;20050;-53
2021/03/09 10:42:49;;;;;;;34.20;21.48;;;;;;;6.39;100.00;101286.41;4962045;28;20363;-55
2021/03/09 10:45:22;;;;;;;38.65;23.38;;;;;;;6.17;100.00;101290.78;4963580;28;20042;-53
2021/03/09 10:47:50;;;;;;;44.38;24.48;;;;;;;6.17;100.00;101293.44;4963972;28;20046;-53
2021/03/09 10:50:19;;;;;;;44.15;24.30;;;;;;;6.01;100.00;101303.56;4965540;28;20046;-55
2021/03/09 10:52:46;;;;;;;45.53;23.88;;;;;;;5.90;100.00;101300.91;4967846;28;20095;-57
2021/03/09 10:55:13;;;;;;;46.50;24.15;;;;;;;6.08;100.00;101299.50;4964257;28;20478;-57
2021/03/09 10:57:40;;;;;;;43.70;22.80;;;;;;;6.23;100.00;101291.28;4966842;28;20046;-52
2021/03/09 11:00:10;;;;;;;46.67;25.50;;;;;;;6.08;100.00;101286.25;4969074;28;20046;-54
2021/03/09 11:02:37;;;;;;;40.80;22.25;;;;;;;6.38;100.00;101284.75;4965216;28;20053;-56
2021/03/09 11:05:06;;;;;;;42.95;24.48;;;;;;;6.97;100.00;101277.28;4963954;28;20043;-55
2021/03/09 11:07:35;;;;;;;39.05;21.35;;;;;;;6.78;100.00;101276.16;4964224;28;20493;-56
2021/03/09 11:10:04;;;;;;;45.15;25.05;;;;;;;6.85;100.00;101281.81;4965739;28;20038;-54
2021/03/09 11:12:31;;;;;;;40.55;22.55;;;;;;;6.98;100.00;101278.97;4966020;28;20074;-56
2021/03/09 11:14:58;;;;;;;39.70;22.40;;;;;;;7.48;100.00;101273.81;4963067;28;20038;-55
2021/03/09 11:17:25;;;;;;;43.30;23.25;;;;;;;7.39;100.00;101279.94;4964094;28;20058;-56
2021/03/09 11:19:52;;;;;;;46.38;23.98;;;;;;;6.77;100.00;101289.56;4965266;28;20175;-54
2021/03/09 11:22:19;;;;;;;42.97;23.17;;;;;;;6.37;100.00;101293.66;4962093;28;20039;-55